Terminal Aerodrome Forecast
Issued by NWS

Home | Current Version | Previous Version | Text Only | Print | Product List | Glossary On
Versions: 1 2 3 4 5 6 7 8 9 10 11 12 13 14 15 16 17 18 19
268
FTUS43 KDLH 171138
TAFBRD
TAF
KBRD 171138Z 1712/1812 00000KT 1SM BR SKC
      TEMPO 1712/1715 3SM BR SCT006
     FM171500 18008KT P6SM FEW150
     FM180200 26009KT P6SM SCT200
     FM180500 27010KT 6SM BR SCT150=

USA.gov is the U.S. government's official web portal to all federal, state and local government web resources and services.